WetterOnline ( https://www.wetteronline.at )

Wetter aktuell Freising

Aktuelles Wetter: Weihenstephan-Dürnast (478m)

6-stündlich | Neueste Meldungen
Ortszeit Temperatur Wetter
Mi, 05.08. 14:00 18.8° C bedeckt
Mi, 05.08. 8:00 11.9° C wolkig
Mi, 05.08. 2:00 11.6° C fast wolkenlos
Di, 04.08. 20:00 13.9° C bedeckt
Di, 04.08. 14:00 13.9° C leichter Regen
Di, 04.08. 8:00 12.5° C leichter Regen
Di, 04.08. 2:00 13.2° C leichter Regen
Mo, 03.08. 20:00 15.9° C Sprühregen
Ortszeit Temperatur Wetter
Mi, 05.08. 17:30 20.4° C wolkig
Mi, 05.08. 17:20 20.4° C wolkig
Mi, 05.08. 17:10 20.8° C leicht bewölkt
Mi, 05.08. 17:00 21.0° C leicht bewölkt
Mi, 05.08. 16:50 21.0° C leicht bewölkt
Mi, 05.08. 16:40 20.4° C leicht bewölkt
Mi, 05.08. 16:30 20.6° C leicht bewölkt
Mi, 05.08. 16:00 20.5° C leicht bewölkt
Mi, 05.08. 15:00 19.4° C bedeckt
Mi, 05.08. 13:00 18.4° C bewölkt
Ortszeit Relative Feuchte Sichtweite
Mi, 05.08. 14:00 63% >70 km
Mi, 05.08. 8:00 96% 16 km
Mi, 05.08. 2:00 99% 6 km
Di, 04.08. 20:00 91% 45 km
Di, 04.08. 14:00 91% 14 km
Di, 04.08. 8:00 94% 30 km
Di, 04.08. 2:00 96% 9 km
Mo, 03.08. 20:00 96% 9 km
Ortszeit Relative Feuchte Sichtweite
Mi, 05.08. 17:30 57% >70 km
Mi, 05.08. 17:20 57% -
Mi, 05.08. 17:10 53% -
Mi, 05.08. 17:00 54% 55 km
Mi, 05.08. 16:50 54% -
Mi, 05.08. 16:40 53% -
Mi, 05.08. 16:30 55% 60 km
Mi, 05.08. 16:00 53% 50 km
Mi, 05.08. 15:00 60% 60 km
Mi, 05.08. 13:00 62% 65 km
Ortszeit Niederschlagsmenge Niederschlagsart
Mi, 05.08. 14:00 0.0 l/m2 in 6 Std. -
Mi, 05.08. 8:00 0.1 l/m2 in 12 Std. -
Mi, 05.08. 2:00 0.1 l/m2 in 6 Std. Regen
Di, 04.08. 20:00 8 l/m2 in 12 Std. Regen
Di, 04.08. 14:00 8 l/m2 in 6 Std. Regen
Di, 04.08. 8:00 20 l/m2 in 12 Std. Regen
Di, 04.08. 2:00 13 l/m2 in 6 Std. Regen
Mo, 03.08. 20:00 3 l/m2 in 12 Std. Regen
Ortszeit Niederschlagsmenge Niederschlagsart
Mi, 05.08. 17:30 0.0 l/m2 in 1 Std. -
Mi, 05.08. 17:20 keine Meldung -
Mi, 05.08. 17:10 keine Meldung -
Mi, 05.08. 17:00 0.0 l/m2 in 1 Std. -
Mi, 05.08. 16:50 keine Meldung -
Mi, 05.08. 16:40 keine Meldung -
Mi, 05.08. 16:30 0.0 l/m2 in 1 Std. -
Mi, 05.08. 16:00 0.0 l/m2 in 1 Std. -
Mi, 05.08. 15:00 keine Meldung -
Mi, 05.08. 13:00 keine Meldung -
Ortszeit Stärke Spitze Richtung
km/h Bft. km/h Grad Sektor
Mi, 05.08. 14:00 13 3 22 80° O
Mi, 05.08. 8:00 2 1 6 90° O
Mi, 05.08. 2:00 0 0 18 - -
Di, 04.08. 20:00 11 2 18 230° SW
Di, 04.08. 14:00 4 1 25 290° W
Di, 04.08. 8:00 13 3 41 320° NW
Di, 04.08. 2:00 11 2 33 330° NW
Mo, 03.08. 20:00 7 2 14 290° W
Ortszeit Stärke Spitze Richtung
km/h Bft. km/h Grad Sektor
Mi, 05.08. 17:30 17 3 28 100° O
Mi, 05.08. 17:20 17 3 - 100° O
Mi, 05.08. 17:10 17 3 - 100° O
Mi, 05.08. 17:00 11 2 26 100° O
Mi, 05.08. 16:50 11 2 - 100° O
Mi, 05.08. 16:40 15 3 - 100° O
Mi, 05.08. 16:30 18 3 25 90° O
Mi, 05.08. 16:00 14 3 22 100° O
Mi, 05.08. 15:00 14 3 25 80° O
Mi, 05.08. 13:00 11 2 22 60° NO
Ortszeit Untergrenze Bedeckung Gattung
total tief tief mittel hoch
Mi, 05.08. 14:00 1500 m 8/8 8/8 - - -
Mi, 05.08. 8:00 <30 m 6/8 0/8 - - -
Mi, 05.08. 2:00 <30 m 1/8 0/8 - - -
Di, 04.08. 20:00 1800 m 8/8 8/8 - - -
Di, 04.08. 14:00 660 m 8/8 8/8 - - -
Di, 04.08. 8:00 330 m 8/8 8/8 - - -
Di, 04.08. 2:00 300 m 8/8 8/8 - - -
Mo, 03.08. 20:00 330 m 8/8 8/8 - - -
Ortszeit Bedeckungsgrad in Achtel und Wolkenuntergrenze
Mi, 05.08. 17:30 5(1380m)
Mi, 05.08. 17:20 5(1380m)
Mi, 05.08. 17:10 2(1380m)
Mi, 05.08. 17:00 2(1440m)
Mi, 05.08. 16:50 2(1440m)
Mi, 05.08. 16:40 2(1470m)
Mi, 05.08. 16:30 4(1410m)
Mi, 05.08. 16:00 2(1290m) 4(1500m)
Mi, 05.08. 15:00 1(1140m) 7(1440m) 8(1500m)
Mi, 05.08. 13:00 5(1110m) 7(1380m)
Ortszeit Luftdruck NN (hPa) Tendenz (hPa in 3 Std.)
Mi, 05.08. 14:00 1019 - 0,5
Mi, 05.08. 8:00 1021 + 0,8
Mi, 05.08. 2:00 1020 + 0,2
Di, 04.08. 20:00 1019 + 1,0
Di, 04.08. 14:00 1016 + 2,2
Di, 04.08. 8:00 1012 + 1,8
Di, 04.08. 2:00 1009 0,0
Mo, 03.08. 20:00 1008 - 0,4
Ortszeit Luftdruck NN (hPa) Tendenz (hPa in 3 Std.)
Mi, 05.08. 17:30 1018 - 0,9
Mi, 05.08. 17:20 1018 keine Meldung
Mi, 05.08. 17:10 1018 keine Meldung
Mi, 05.08. 17:00 1018 - 1,0
Mi, 05.08. 16:50 1018 keine Meldung
Mi, 05.08. 16:40 1018 keine Meldung
Mi, 05.08. 16:30 1018 - 0,9
Mi, 05.08. 16:00 1018 - 0,8
Mi, 05.08. 15:00 1019 - 0,6
Mi, 05.08. 13:00 1019 - 0,2
Ortszeit Schneehöhe (cm)
Mi, 05.08. 14:00 -
Mi, 05.08. 8:00 -
Mi, 05.08. 2:00 -
Di, 04.08. 20:00 -
Di, 04.08. 14:00 -
Di, 04.08. 8:00 -
Di, 04.08. 2:00 -
Mo, 03.08. 20:00 -
Ortszeit Schneehöhe (cm)
Mi, 05.08. 17:30 -
Mi, 05.08. 17:20 -
Mi, 05.08. 17:10 -
Mi, 05.08. 17:00 -
Mi, 05.08. 16:50 -
Mi, 05.08. 16:40 -
Mi, 05.08. 16:30 -
Mi, 05.08. 16:00 -
Mi, 05.08. 15:00 -
Mi, 05.08. 13:00 -
Link zu dieser Seite / Seite empfehlen

Das Wetter in ...